sensor_id;sensor_type;location;lat;lon;timestamp;temperature;humidity
72202;SHT30;60105;54.956;73.412;2023-02-28T00:01:07;-0.84;78.01
72202;SHT30;60105;54.956;73.412;2023-02-28T00:04:40;-0.88;77.83
72202;SHT30;60105;54.956;73.412;2023-02-28T00:07:42;-0.94;78.06
72202;SHT30;60105;54.956;73.412;2023-02-28T00:10:43;-0.87;78.04
72202;SHT30;60105;54.956;73.412;2023-02-28T00:13:55;-0.81;78.08
72202;SHT30;60105;54.956;73.412;2023-02-28T00:16:56;-0.84;77.41
72202;SHT30;60105;54.956;73.412;2023-02-28T00:19:57;-0.93;77.94
72202;SHT30;60105;54.956;73.412;2023-02-28T00:23:20;-0.83;77.42
72202;SHT30;60105;54.956;73.412;2023-02-28T00:26:22;-0.90;77.66
72202;SHT30;60105;54.956;73.412;2023-02-28T00:29:40;-0.81;77.35
72202;SHT30;60105;54.956;73.412;2023-02-28T00:32:41;-0.80;76.77
72202;SHT30;60105;54.956;73.412;2023-02-28T00:35:43;-0.73;76.69
72202;SHT30;60105;54.956;73.412;2023-02-28T00:39:40;-0.76;76.28
72202;SHT30;60105;54.956;73.412;2023-02-28T00:42:41;-0.72;76.44
72202;SHT30;60105;54.956;73.412;2023-02-28T00:45:52;-0.73;76.43
72202;SHT30;60105;54.956;73.412;2023-02-28T00:49:40;-0.76;76.67
72202;SHT30;60105;54.956;73.412;2023-02-28T00:52:48;-0.83;76.44
72202;SHT30;60105;54.956;73.412;2023-02-28T00:55:50;-0.80;76.46
72202;SHT30;60105;54.956;73.412;2023-02-28T00:58:51;-0.83;76.61
72202;SHT30;60105;54.956;73.412;2023-02-28T01:01:53;-0.83;76.65
72202;SHT30;60105;54.956;73.412;2023-02-28T01:04:56;-0.73;76.22
72202;SHT30;60105;54.956;73.412;2023-02-28T01:08:10;-0.70;76.47
72202;SHT30;60105;54.956;73.412;2023-02-28T01:11:13;-0.69;76.01
72202;SHT30;60105;54.956;73.412;2023-02-28T01:14:39;-0.70;75.63
72202;SHT30;60105;54.956;73.412;2023-02-28T01:17:41;-0.70;76.13
72202;SHT30;60105;54.956;73.412;2023-02-28T01:20:42;-0.67;75.80
72202;SHT30;60105;54.956;73.412;2023-02-28T01:23:49;-0.67;76.04
72202;SHT30;60105;54.956;73.412;2023-02-28T01:26:51;-0.72;76.06
72202;SHT30;60105;54.956;73.412;2023-02-28T01:30:03;-0.70;75.77
72202;SHT30;60105;54.956;73.412;2023-02-28T01:33:10;-0.69;75.57
72202;SHT30;60105;54.956;73.412;2023-02-28T01:36:18;-0.66;75.19
72202;SHT30;60105;54.956;73.412;2023-02-28T01:39:40;-0.73;75.19
72202;SHT30;60105;54.956;73.412;2023-02-28T01:42:41;-0.57;74.76
72202;SHT30;60105;54.956;73.412;2023-02-28T01:45:54;-0.62;73.98
72202;SHT30;60105;54.956;73.412;2023-02-28T01:49:14;-0.62;73.85
72202;SHT30;60105;54.956;73.412;2023-02-28T01:52:18;-0.59;73.91
72202;SHT30;60105;54.956;73.412;2023-02-28T01:55:31;-0.52;73.40
72202;SHT30;60105;54.956;73.412;2023-02-28T01:58:34;-0.54;73.38
72202;SHT30;60105;54.956;73.412;2023-02-28T02:01:36;-0.49;72.98
72202;SHT30;60105;54.956;73.412;2023-02-28T02:04:41;-0.62;73.01
72202;SHT30;60105;54.956;73.412;2023-02-28T02:07:50;-0.67;73.22
72202;SHT30;60105;54.956;73.412;2023-02-28T02:11:03;-0.63;73.26
72202;SHT30;60105;54.956;73.412;2023-02-28T02:14:55;-0.64;72.93
72202;SHT30;60105;54.956;73.412;2023-02-28T02:31:51;-0.33;72.06
72202;SHT30;60105;54.956;73.412;2023-02-28T02:35:18;-0.43;72.17
72202;SHT30;60105;54.956;73.412;2023-02-28T02:38:33;-0.52;72.11
72202;SHT30;60105;54.956;73.412;2023-02-28T02:41:53;-0.67;73.09
72202;SHT30;60105;54.956;73.412;2023-02-28T02:45:05;-0.67;73.08
72202;SHT30;60105;54.956;73.412;2023-02-28T02:48:11;-0.69;73.11
72202;SHT30;60105;54.956;73.412;2023-02-28T02:51:16;-0.67;73.03
72202;SHT30;60105;54.956;73.412;2023-02-28T02:54:40;-0.64;72.70
72202;SHT30;60105;54.956;73.412;2023-02-28T02:57:45;-0.66;72.97
72202;SHT30;60105;54.956;73.412;2023-02-28T03:01:01;-0.57;72.50
72202;SHT30;60105;54.956;73.412;2023-02-28T03:04:45;-0.72;72.99
72202;SHT30;60105;54.956;73.412;2023-02-28T03:07:47;-0.66;73.10
72202;SHT30;60105;54.956;73.412;2023-02-28T03:10:51;-0.70;72.85
72202;SHT30;60105;54.956;73.412;2023-02-28T03:14:51;-0.77;73.31
72202;SHT30;60105;54.956;73.412;2023-02-28T03:18:08;-0.79;73.45
72202;SHT30;60105;54.956;73.412;2023-02-28T03:21:30;-0.84;73.49
72202;SHT30;60105;54.956;73.412;2023-02-28T03:24:54;-0.94;73.73
72202;SHT30;60105;54.956;73.412;2023-02-28T03:31:16;-1.14;75.11
72202;SHT30;60105;54.956;73.412;2023-02-28T03:34:42;-1.04;75.25
72202;SHT30;60105;54.956;73.412;2023-02-28T03:37:48;-1.24;75.88
72202;SHT30;60105;54.956;73.412;2023-02-28T03:40:57;-1.24;76.03
72202;SHT30;60105;54.956;73.412;2023-02-28T03:44:46;-1.09;75.92
72202;SHT30;60105;54.956;73.412;2023-02-28T03:48:01;-1.09;75.79
72202;SHT30;60105;54.956;73.412;2023-02-28T03:51:06;-0.98;75.28
72202;SHT30;60105;54.956;73.412;2023-02-28T03:54:13;-1.03;75.35
72202;SHT30;60105;54.956;73.412;2023-02-28T03:57:42;-1.05;75.67
72202;SHT30;60105;54.956;73.412;2023-02-28T04:00:47;-0.98;75.57
72202;SHT30;60105;54.956;73.412;2023-02-28T04:04:40;-0.95;75.53
72202;SHT30;60105;54.956;73.412;2023-02-28T04:07:46;-0.80;75.16
72202;SHT30;60105;54.956;73.412;2023-02-28T04:11:04;-0.64;74.41
72202;SHT30;60105;54.956;73.412;2023-02-28T04:14:40;-0.73;74.15
72202;SHT30;60105;54.956;73.412;2023-02-28T04:17:41;-0.70;74.46
72202;SHT30;60105;54.956;73.412;2023-02-28T04:20:43;-0.67;74.43
72202;SHT30;60105;54.956;73.412;2023-02-28T04:23:44;-0.59;74.19
72202;SHT30;60105;54.956;73.412;2023-02-28T04:26:48;-0.74;74.36
72202;SHT30;60105;54.956;73.412;2023-02-28T04:29:54;-0.73;75.03
72202;SHT30;60105;54.956;73.412;2023-02-28T04:32:55;-0.67;74.44
72202;SHT30;60105;54.956;73.412;2023-02-28T04:36:01;-0.64;74.36
72202;SHT30;60105;54.956;73.412;2023-02-28T04:39:41;-0.69;74.55
72202;SHT30;60105;54.956;73.412;2023-02-28T04:42:42;-0.59;74.61
72202;SHT30;60105;54.956;73.412;2023-02-28T04:45:43;-0.69;74.54
72202;SHT30;60105;54.956;73.412;2023-02-28T04:48:45;-0.64;74.33
72202;SHT30;60105;54.956;73.412;2023-02-28T04:51:56;-0.57;74.64
72202;SHT30;60105;54.956;73.412;2023-02-28T04:55:08;-0.59;74.49
72202;SHT30;60105;54.956;73.412;2023-02-28T04:58:09;-0.53;74.10
72202;SHT30;60105;54.956;73.412;2023-02-28T05:04:40;-0.37;73.99
72202;SHT30;60105;54.956;73.412;2023-02-28T05:07:41;-0.33;73.35
72202;SHT30;60105;54.956;73.412;2023-02-28T05:10:42;-0.30;73.91
72202;SHT30;60105;54.956;73.412;2023-02-28T05:13:44;-0.26;73.64
72202;SHT30;60105;54.956;73.412;2023-02-28T05:16:45;-0.30;73.88
72202;SHT30;60105;54.956;73.412;2023-02-28T05:19:47;-0.33;74.07
72202;SHT30;60105;54.956;73.412;2023-02-28T05:22:59;-0.16;73.58
72202;SHT30;60105;54.956;73.412;2023-02-28T05:26:01;-0.29;73.87
72202;SHT30;60105;54.956;73.412;2023-02-28T05:29:40;-0.19;73.86
72202;SHT30;60105;54.956;73.412;2023-02-28T05:32:50;-0.14;73.32
72202;SHT30;60105;54.956;73.412;2023-02-28T05:35:55;-0.11;72.98
72202;SHT30;60105;54.956;73.412;2023-02-28T05:39:40;-0.21;72.74
72202;SHT30;60105;54.956;73.412;2023-02-28T05:42:42;-0.28;73.19
72202;SHT30;60105;54.956;73.412;2023-02-28T05:45:53;-0.22;72.90
72202;SHT30;60105;54.956;73.412;2023-02-28T05:48:54;-0.15;72.32
72202;SHT30;60105;54.956;73.412;2023-02-28T05:52:07;-0.37;73.54
72202;SHT30;60105;54.956;73.412;2023-02-28T05:55:08;-0.18;72.79
72202;SHT30;60105;54.956;73.412;2023-02-28T05:58:10;-0.33;72.65
72202;SHT30;60105;54.956;73.412;2023-02-28T06:04:40;-0.39;73.44
72202;SHT30;60105;54.956;73.412;2023-02-28T06:07:52;-0.39;73.58
72202;SHT30;60105;54.956;73.412;2023-02-28T06:10:53;-0.25;73.22
72202;SHT30;60105;54.956;73.412;2023-02-28T06:13:56;-0.25;73.95
72202;SHT30;60105;54.956;73.412;2023-02-28T06:16:58;-0.21;73.99
72202;SHT30;60105;54.956;73.412;2023-02-28T06:19:59;-0.18;73.76
72202;SHT30;60105;54.956;73.412;2023-02-28T06:23:11;0.16;72.97
72202;SHT30;60105;54.956;73.412;2023-02-28T06:26:12;-0.02;73.37
72202;SHT30;60105;54.956;73.412;2023-02-28T06:29:40;0.05;73.27
72202;SHT30;60105;54.956;73.412;2023-02-28T06:32:41;0.01;73.30
72202;SHT30;60105;54.956;73.412;2023-02-28T06:35:50;0.06;72.85
72202;SHT30;60105;54.956;73.412;2023-02-28T06:38:52;0.25;72.33
72202;SHT30;60105;54.956;73.412;2023-02-28T06:41:55;0.39;71.83
72202;SHT30;60105;54.956;73.412;2023-02-28T06:45:08;0.22;71.58
72202;SHT30;60105;54.956;73.412;2023-02-28T06:48:19;0.22;71.66
72202;SHT30;60105;54.956;73.412;2023-02-28T06:51:26;0.17;71.72
72202;SHT30;60105;54.956;73.412;2023-02-28T06:54:28;0.10;72.34
72202;SHT30;60105;54.956;73.412;2023-02-28T06:57:30;0.22;71.75
72202;SHT30;60105;54.956;73.412;2023-02-28T07:00:42;0.20;71.46
72202;SHT30;60105;54.956;73.412;2023-02-28T07:03:54;0.33;71.44
72202;SHT30;60105;54.956;73.412;2023-02-28T07:07:05;0.30;71.46
72202;SHT30;60105;54.956;73.412;2023-02-28T07:10:09;0.25;71.59
72202;SHT30;60105;54.956;73.412;2023-02-28T07:13:11;0.40;71.16
72202;SHT30;60105;54.956;73.412;2023-02-28T07:16:24;0.47;70.73
72202;SHT30;60105;54.956;73.412;2023-02-28T07:19:40;0.39;71.14
72202;SHT30;60105;54.956;73.412;2023-02-28T07:22:41;0.30;71.36
72202;SHT30;60105;54.956;73.412;2023-02-28T07:25:42;0.36;71.54
72202;SHT30;60105;54.956;73.412;2023-02-28T07:28:46;0.29;71.49
72202;SHT30;60105;54.956;73.412;2023-02-28T07:31:48;0.25;71.59
72202;SHT30;60105;54.956;73.412;2023-02-28T07:34:51;0.35;71.24
72202;SHT30;60105;54.956;73.412;2023-02-28T07:37:52;0.33;70.75
72202;SHT30;60105;54.956;73.412;2023-02-28T07:40:58;0.42;70.75
72202;SHT30;60105;54.956;73.412;2023-02-28T07:44:40;0.37;70.84
72202;SHT30;60105;54.956;73.412;2023-02-28T07:47:52;0.53;70.69
72202;SHT30;60105;54.956;73.412;2023-02-28T07:50:57;0.40;70.95
72202;SHT30;60105;54.956;73.412;2023-02-28T07:54:08;0.29;71.54
72202;SHT30;60105;54.956;73.412;2023-02-28T07:57:10;0.35;71.48
72202;SHT30;60105;54.956;73.412;2023-02-28T08:00:13;0.29;71.39
72202;SHT30;60105;54.956;73.412;2023-02-28T08:03:16;0.35;71.52
72202;SHT30;60105;54.956;73.412;2023-02-28T08:06:20;0.46;71.54
72202;SHT30;60105;54.956;73.412;2023-02-28T08:09:40;0.43;71.52
72202;SHT30;60105;54.956;73.412;2023-02-28T08:12:46;0.27;72.09
72202;SHT30;60105;54.956;73.412;2023-02-28T08:15:47;0.25;72.61
72202;SHT30;60105;54.956;73.412;2023-02-28T08:18:50;0.32;72.69
72202;SHT30;60105;54.956;73.412;2023-02-28T08:21:52;0.23;72.91
72202;SHT30;60105;54.956;73.412;2023-02-28T08:24:53;0.35;72.84
72202;SHT30;60105;54.956;73.412;2023-02-28T08:27:55;0.33;72.87
72202;SHT30;60105;54.956;73.412;2023-02-28T08:30:56;0.30;72.70
72202;SHT30;60105;54.956;73.412;2023-02-28T08:34:40;0.25;73.13
72202;SHT30;60105;54.956;73.412;2023-02-28T08:37:41;0.22;73.55
72202;SHT30;60105;54.956;73.412;2023-02-28T08:40:42;0.39;73.28
72202;SHT30;60105;54.956;73.412;2023-02-28T08:43:44;0.40;73.00
72202;SHT30;60105;54.956;73.412;2023-02-28T08:46:55;0.39;73.13
72202;SHT30;60105;54.956;73.412;2023-02-28T08:49:59;0.40;73.31
72202;SHT30;60105;54.956;73.412;2023-02-28T08:53:01;0.39;73.59
72202;SHT30;60105;54.956;73.412;2023-02-28T08:56:07;0.33;73.65
72202;SHT30;60105;54.956;73.412;2023-02-28T08:59:40;0.50;73.82
72202;SHT30;60105;54.956;73.412;2023-02-28T09:02:47;0.63;73.37
72202;SHT30;60105;54.956;73.412;2023-02-28T09:06:00;0.56;73.46
72202;SHT30;60105;54.956;73.412;2023-02-28T09:09:40;0.68;73.47
72202;SHT30;60105;54.956;73.412;2023-02-28T09:13:04;0.60;73.92
72202;SHT30;60105;54.956;73.412;2023-02-28T09:16:11;0.56;73.93
72202;SHT30;60105;54.956;73.412;2023-02-28T09:19:40;0.54;74.79
72202;SHT30;60105;54.956;73.412;2023-02-28T09:22:47;0.63;74.16
72202;SHT30;60105;54.956;73.412;2023-02-28T09:25:54;0.56;74.54
72202;SHT30;60105;54.956;73.412;2023-02-28T09:28:55;0.56;75.14
72202;SHT30;60105;54.956;73.412;2023-02-28T09:32:00;0.58;74.80
72202;SHT30;60105;54.956;73.412;2023-02-28T09:35:06;0.71;75.08
72202;SHT30;60105;54.956;73.412;2023-02-28T09:38:07;0.81;74.11
72202;SHT30;60105;54.956;73.412;2023-02-28T09:41:18;0.83;74.01
72202;SHT30;60105;54.956;73.412;2023-02-28T09:44:41;1.02;73.77
72202;SHT30;60105;54.956;73.412;2023-02-28T09:47:45;0.83;74.34
72202;SHT30;60105;54.956;73.412;2023-02-28T09:51:05;0.87;74.32
72202;SHT30;60105;54.956;73.412;2023-02-28T09:54:24;0.87;74.74
72202;SHT30;60105;54.956;73.412;2023-02-28T09:57:39;0.85;74.77
72202;SHT30;60105;54.956;73.412;2023-02-28T10:01:00;0.98;74.44
72202;SHT30;60105;54.956;73.412;2023-02-28T10:04:51;0.96;74.92
72202;SHT30;60105;54.956;73.412;2023-02-28T10:11:12;0.73;76.56
72202;SHT30;60105;54.956;73.412;2023-02-28T10:14:40;0.84;76.81
72202;SHT30;60105;54.956;73.412;2023-02-28T10:17:47;1.01;76.41
72202;SHT30;60105;54.956;73.412;2023-02-28T10:20:50;1.09;76.45
72202;SHT30;60105;54.956;73.412;2023-02-28T10:24:02;1.11;76.06
72202;SHT30;60105;54.956;73.412;2023-02-28T10:27:16;1.22;76.23
72202;SHT30;60105;54.956;73.412;2023-02-28T10:30:18;1.38;75.74
72202;SHT30;60105;54.956;73.412;2023-02-28T10:33:32;1.33;76.11
72202;SHT30;60105;54.956;73.412;2023-02-28T10:36:35;1.32;76.09
72202;SHT30;60105;54.956;73.412;2023-02-28T10:39:41;1.33;76.09
72202;SHT30;60105;54.956;73.412;2023-02-28T10:42:58;1.38;76.19
72202;SHT30;60105;54.956;73.412;2023-02-28T10:46:12;1.50;75.49
72202;SHT30;60105;54.956;73.412;2023-02-28T10:49:40;1.50;75.61
72202;SHT30;60105;54.956;73.412;2023-02-28T10:59:40;1.39;76.35
72202;SHT30;60105;54.956;73.412;2023-02-28T11:02:41;1.32;76.65
72202;SHT30;60105;54.956;73.412;2023-02-28T11:05:46;1.31;77.31
72202;SHT30;60105;54.956;73.412;2023-02-28T11:08:54;1.28;77.54
72202;SHT30;60105;54.956;73.412;2023-02-28T11:12:02;1.31;77.68
72202;SHT30;60105;54.956;73.412;2023-02-28T11:15:18;1.26;77.80
72202;SHT30;60105;54.956;73.412;2023-02-28T11:18:38;1.25;77.87
72202;SHT30;60105;54.956;73.412;2023-02-28T11:21:48;1.21;78.25
72202;SHT30;60105;54.956;73.412;2023-02-28T11:24:54;1.29;78.49
72202;SHT30;60105;54.956;73.412;2023-02-28T11:28:26;1.38;78.01
72202;SHT30;60105;54.956;73.412;2023-02-28T11:31:33;1.42;77.83
72202;SHT30;60105;54.956;73.412;2023-02-28T11:34:40;1.26;78.44
72202;SHT30;60105;54.956;73.412;2023-02-28T11:37:47;1.25;78.24
72202;SHT30;60105;54.956;73.412;2023-02-28T11:45:11;1.18;79.03
72202;SHT30;60105;54.956;73.412;2023-02-28T11:48:27;1.23;78.32
72202;SHT30;60105;54.956;73.412;2023-02-28T11:51:35;1.12;78.69
72202;SHT30;60105;54.956;73.412;2023-02-28T12:01:49;1.06;79.13
72202;SHT30;60105;54.956;73.412;2023-02-28T12:08:45;1.04;79.15
72202;SHT30;60105;54.956;73.412;2023-02-28T12:28:23;0.88;80.12
72202;SHT30;60105;54.956;73.412;2023-02-28T12:31:30;0.96;79.73
72202;SHT30;60105;54.956;73.412;2023-02-28T12:34:44;0.89;79.88
72202;SHT30;60105;54.956;73.412;2023-02-28T12:38:19;0.70;80.68
72202;SHT30;60105;54.956;73.412;2023-02-28T12:41:29;0.77;81.11
72202;SHT30;60105;54.956;73.412;2023-02-28T12:44:47;0.78;80.65
72202;SHT30;60105;54.956;73.412;2023-02-28T12:48:00;0.75;80.75
72202;SHT30;60105;54.956;73.412;2023-02-28T12:51:05;0.74;81.06
72202;SHT30;60105;54.956;73.412;2023-02-28T12:54:27;0.71;81.11
72202;SHT30;60105;54.956;73.412;2023-02-28T13:04:57;0.87;80.13
72202;SHT30;60105;54.956;73.412;2023-02-28T13:11:54;0.95;79.19
72202;SHT30;60105;54.956;73.412;2023-02-28T13:15:24;0.98;79.01
72202;SHT30;60105;54.956;73.412;2023-02-28T13:18:35;1.05;78.84
72202;SHT30;60105;54.956;73.412;2023-02-28T13:21:43;1.11;78.54
72202;SHT30;60105;54.956;73.412;2023-02-28T13:24:56;1.05;78.71
72202;SHT30;60105;54.956;73.412;2023-02-28T13:28:10;1.11;78.11
72202;SHT30;60105;54.956;73.412;2023-02-28T13:31:12;1.09;78.46
72202;SHT30;60105;54.956;73.412;2023-02-28T13:34:41;1.04;78.25
72202;SHT30;60105;54.956;73.412;2023-02-28T13:37:48;1.04;78.39
72202;SHT30;60105;54.956;73.412;2023-02-28T13:40:50;1.21;77.69
72202;SHT30;60105;54.956;73.412;2023-02-28T13:50:35;1.09;77.80
72202;SHT30;60105;54.956;73.412;2023-02-28T13:53:55;1.08;77.87
72202;SHT30;60105;54.956;73.412;2023-02-28T14:01:15;1.09;78.17
72202;SHT30;60105;54.956;73.412;2023-02-28T14:07:56;1.05;78.19
72202;SHT30;60105;54.956;73.412;2023-02-28T14:11:08;0.95;78.43
72202;SHT30;60105;54.956;73.412;2023-02-28T14:17:41;1.02;78.58
72202;SHT30;60105;54.956;73.412;2023-02-28T14:20:43;1.09;78.15
72202;SHT30;60105;54.956;73.412;2023-02-28T14:31:11;1.01;78.52
72202;SHT30;60105;54.956;73.412;2023-02-28T14:34:43;0.85;78.86
72202;SHT30;60105;54.956;73.412;2023-02-28T14:37:47;0.89;79.16
72202;SHT30;60105;54.956;73.412;2023-02-28T14:40:51;0.87;79.26
72202;SHT30;60105;54.956;73.412;2023-02-28T14:44:00;0.91;79.25
72202;SHT30;60105;54.956;73.412;2023-02-28T14:47:14;0.98;78.70
72202;SHT30;60105;54.956;73.412;2023-02-28T14:50:27;0.95;78.80
72202;SHT30;60105;54.956;73.412;2023-02-28T14:53:36;1.04;79.21
72202;SHT30;60105;54.956;73.412;2023-02-28T14:56:49;1.06;78.49
72202;SHT30;60105;54.956;73.412;2023-02-28T15:00:24;0.99;78.80
72202;SHT30;60105;54.956;73.412;2023-02-28T15:03:37;0.99;78.95
72202;SHT30;60105;54.956;73.412;2023-02-28T15:06:38;0.94;78.88
72202;SHT30;60105;54.956;73.412;2023-02-28T15:09:44;0.92;79.59
72202;SHT30;60105;54.956;73.412;2023-02-28T15:12:55;1.14;78.94
72202;SHT30;60105;54.956;73.412;2023-02-28T15:16:03;1.11;79.00
72202;SHT30;60105;54.956;73.412;2023-02-28T15:19:41;1.14;78.63
72202;SHT30;60105;54.956;73.412;2023-02-28T15:22:46;1.02;78.64
72202;SHT30;60105;54.956;73.412;2023-02-28T15:25:50;1.02;79.15
72202;SHT30;60105;54.956;73.412;2023-02-28T15:28:58;1.09;79.00
72202;SHT30;60105;54.956;73.412;2023-02-28T15:32:03;1.19;78.51
72202;SHT30;60105;54.956;73.412;2023-02-28T15:35:28;1.18;78.40
72202;SHT30;60105;54.956;73.412;2023-02-28T15:38:35;1.25;78.29
72202;SHT30;60105;54.956;73.412;2023-02-28T15:41:37;1.21;78.39
72202;SHT30;60105;54.956;73.412;2023-02-28T15:44:43;1.29;78.36
72202;SHT30;60105;54.956;73.412;2023-02-28T15:47:50;1.31;78.24
72202;SHT30;60105;54.956;73.412;2023-02-28T15:54:28;1.31;78.23
72202;SHT30;60105;54.956;73.412;2023-02-28T15:57:31;1.35;78.02
72202;SHT30;60105;54.956;73.412;2023-02-28T16:00:37;1.28;78.34
72202;SHT30;60105;54.956;73.412;2023-02-28T16:03:43;1.16;78.67
72202;SHT30;60105;54.956;73.412;2023-02-28T16:09:59;1.33;78.34
72202;SHT30;60105;54.956;73.412;2023-02-28T16:13:02;1.31;78.21
72202;SHT30;60105;54.956;73.412;2023-02-28T16:16:15;1.25;78.62
72202;SHT30;60105;54.956;73.412;2023-02-28T16:19:39;1.25;78.50
72202;SHT30;60105;54.956;73.412;2023-02-28T16:22:45;1.28;78.49
72202;SHT30;60105;54.956;73.412;2023-02-28T16:25:46;1.26;78.41
72202;SHT30;60105;54.956;73.412;2023-02-28T16:28:53;1.35;78.62
72202;SHT30;60105;54.956;73.412;2023-02-28T16:31:55;1.32;77.90
72202;SHT30;60105;54.956;73.412;2023-02-28T16:34:57;1.32;78.41
72202;SHT30;60105;54.956;73.412;2023-02-28T16:38:01;1.26;78.70
72202;SHT30;60105;54.956;73.412;2023-02-28T16:41:17;1.23;78.79
72202;SHT30;60105;54.956;73.412;2023-02-28T16:44:39;1.36;78.72
72202;SHT30;60105;54.956;73.412;2023-02-28T16:47:44;1.46;78.44
72202;SHT30;60105;54.956;73.412;2023-02-28T16:50:55;1.39;78.42
72202;SHT30;60105;54.956;73.412;2023-02-28T16:54:08;1.40;78.27
72202;SHT30;60105;54.956;73.412;2023-02-28T16:57:22;1.42;78.60
72202;SHT30;60105;54.956;73.412;2023-02-28T17:00:25;1.40;78.71
72202;SHT30;60105;54.956;73.412;2023-02-28T17:03:36;1.47;78.35
72202;SHT30;60105;54.956;73.412;2023-02-28T17:06:40;1.38;78.66
72202;SHT30;60105;54.956;73.412;2023-02-28T17:09:46;1.43;78.81
72202;SHT30;60105;54.956;73.412;2023-02-28T17:12:48;1.50;78.66
72202;SHT30;60105;54.956;73.412;2023-02-28T17:15:50;1.49;78.28
72202;SHT30;60105;54.956;73.412;2023-02-28T17:18:53;1.62;77.87
72202;SHT30;60105;54.956;73.412;2023-02-28T17:21:55;1.62;77.81
72202;SHT30;60105;54.956;73.412;2023-02-28T17:24:56;1.64;77.98
72202;SHT30;60105;54.956;73.412;2023-02-28T17:27:58;1.67;77.61
72202;SHT30;60105;54.956;73.412;2023-02-28T17:31:00;1.62;78.00
72202;SHT30;60105;54.956;73.412;2023-02-28T17:34:39;1.73;77.63
72202;SHT30;60105;54.956;73.412;2023-02-28T17:37:50;1.71;77.55
72202;SHT30;60105;54.956;73.412;2023-02-28T17:40:56;1.84;77.29
72202;SHT30;60105;54.956;73.412;2023-02-28T17:44:40;1.81;77.03
72202;SHT30;60105;54.956;73.412;2023-02-28T17:47:43;1.80;77.27
72202;SHT30;60105;54.956;73.412;2023-02-28T17:50:46;1.85;77.03
72202;SHT30;60105;54.956;73.412;2023-02-28T17:53:53;1.85;77.11
72202;SHT30;60105;54.956;73.412;2023-02-28T17:57:04;1.77;77.33
72202;SHT30;60105;54.956;73.412;2023-02-28T18:00:06;1.77;77.68
72202;SHT30;60105;54.956;73.412;2023-02-28T18:03:18;1.81;77.36
72202;SHT30;60105;54.956;73.412;2023-02-28T18:06:36;1.80;77.26
72202;SHT30;60105;54.956;73.412;2023-02-28T18:09:56;1.83;77.62
72202;SHT30;60105;54.956;73.412;2023-02-28T18:13:08;1.88;77.32
72202;SHT30;60105;54.956;73.412;2023-02-28T18:16:09;1.90;77.19
72202;SHT30;60105;54.956;73.412;2023-02-28T18:19:39;1.97;77.13
72202;SHT30;60105;54.956;73.412;2023-02-28T18:22:41;1.91;77.27
72202;SHT30;60105;54.956;73.412;2023-02-28T18:25:42;1.91;77.15
72202;SHT30;60105;54.956;73.412;2023-02-28T18:28:44;1.91;77.46
72202;SHT30;60105;54.956;73.412;2023-02-28T18:31:51;1.85;77.29
72202;SHT30;60105;54.956;73.412;2023-02-28T18:35:03;1.91;77.41
72202;SHT30;60105;54.956;73.412;2023-02-28T18:38:17;1.94;77.05
72202;SHT30;60105;54.956;73.412;2023-02-28T18:41:22;1.94;77.36
72202;SHT30;60105;54.956;73.412;2023-02-28T18:44:39;2.00;76.93
72202;SHT30;60105;54.956;73.412;2023-02-28T18:47:40;1.98;77.38
72202;SHT30;60105;54.956;73.412;2023-02-28T18:50:42;1.98;76.94
72202;SHT30;60105;54.956;73.412;2023-02-28T18:53:44;1.91;77.61
72202;SHT30;60105;54.956;73.412;2023-02-28T18:56:45;1.98;77.37
72202;SHT30;60105;54.956;73.412;2023-02-28T18:59:56;1.95;77.29
72202;SHT30;60105;54.956;73.412;2023-02-28T19:02:57;2.01;77.37
72202;SHT30;60105;54.956;73.412;2023-02-28T19:06:04;1.93;77.25
72202;SHT30;60105;54.956;73.412;2023-02-28T19:09:39;1.84;77.58
72202;SHT30;60105;54.956;73.412;2023-02-28T19:12:41;1.94;77.71
72202;SHT30;60105;54.956;73.412;2023-02-28T19:16:00;2.04;77.08
72202;SHT30;60105;54.956;73.412;2023-02-28T19:19:39;2.08;76.62
72202;SHT30;60105;54.956;73.412;2023-02-28T19:22:41;2.08;76.48
72202;SHT30;60105;54.956;73.412;2023-02-28T19:25:47;1.94;77.29
72202;SHT30;60105;54.956;73.412;2023-02-28T19:28:49;1.83;77.29
72202;SHT30;60105;54.956;73.412;2023-02-28T19:32:00;1.91;77.37
72202;SHT30;60105;54.956;73.412;2023-02-28T19:35:04;1.94;76.94
72202;SHT30;60105;54.956;73.412;2023-02-28T19:38:05;2.10;76.50
72202;SHT30;60105;54.956;73.412;2023-02-28T19:41:09;2.10;76.50
72202;SHT30;60105;54.956;73.412;2023-02-28T19:44:40;2.05;76.49
72202;SHT30;60105;54.956;73.412;2023-02-28T19:47:41;2.05;76.09
72202;SHT30;60105;54.956;73.412;2023-02-28T19:50:42;2.01;76.41
72202;SHT30;60105;54.956;73.412;2023-02-28T19:53:44;2.04;75.99
72202;SHT30;60105;54.956;73.412;2023-02-28T19:56:55;1.87;76.36
72202;SHT30;60105;54.956;73.412;2023-02-28T20:00:09;1.93;76.24
72202;SHT30;60105;54.956;73.412;2023-02-28T20:03:18;1.77;76.39
72202;SHT30;60105;54.956;73.412;2023-02-28T20:06:31;1.87;76.30
72202;SHT30;60105;54.956;73.412;2023-02-28T20:09:39;1.93;75.96
72202;SHT30;60105;54.956;73.412;2023-02-28T20:12:49;1.91;75.91
72202;SHT30;60105;54.956;73.412;2023-02-28T20:16:01;1.90;75.95
72202;SHT30;60105;54.956;73.412;2023-02-28T20:19:39;1.80;76.08
72202;SHT30;60105;54.956;73.412;2023-02-28T20:22:41;1.66;76.31
72202;SHT30;60105;54.956;73.412;2023-02-28T20:25:42;1.77;76.22
72202;SHT30;60105;54.956;73.412;2023-02-28T20:28:53;1.90;75.40
72202;SHT30;60105;54.956;73.412;2023-02-28T20:31:59;1.80;75.25
72202;SHT30;60105;54.956;73.412;2023-02-28T20:35:00;1.73;75.50
72202;SHT30;60105;54.956;73.412;2023-02-28T20:38:03;1.78;75.27
72202;SHT30;60105;54.956;73.412;2023-02-28T20:41:15;1.80;75.05
72202;SHT30;60105;54.956;73.412;2023-02-28T20:44:39;1.74;75.33
72202;SHT30;60105;54.956;73.412;2023-02-28T20:47:40;1.78;75.11
72202;SHT30;60105;54.956;73.412;2023-02-28T20:50:50;1.73;75.41
72202;SHT30;60105;54.956;73.412;2023-02-28T20:53:51;1.78;75.31
72202;SHT30;60105;54.956;73.412;2023-02-28T20:57:03;1.73;75.62
72202;SHT30;60105;54.956;73.412;2023-02-28T21:00:05;1.75;75.35
72202;SHT30;60105;54.956;73.412;2023-02-28T21:03:13;1.81;75.48
72202;SHT30;60105;54.956;73.412;2023-02-28T21:06:17;1.78;75.54
72202;SHT30;60105;54.956;73.412;2023-02-28T21:09:39;1.73;75.97
72202;SHT30;60105;54.956;73.412;2023-02-28T21:12:40;1.78;76.00
72202;SHT30;60105;54.956;73.412;2023-02-28T21:15:42;1.81;76.19
72202;SHT30;60105;54.956;73.412;2023-02-28T21:18:49;1.88;75.74
72202;SHT30;60105;54.956;73.412;2023-02-28T21:21:50;1.84;75.93
72202;SHT30;60105;54.956;73.412;2023-02-28T21:24:51;1.91;76.03
72202;SHT30;60105;54.956;73.412;2023-02-28T21:27:53;1.98;75.57
72202;SHT30;60105;54.956;73.412;2023-02-28T21:31:02;1.97;75.65
72202;SHT30;60105;54.956;73.412;2023-02-28T21:34:39;2.07;75.45
72202;SHT30;60105;54.956;73.412;2023-02-28T21:37:41;2.11;74.90
72202;SHT30;60105;54.956;73.412;2023-02-28T21:40:48;2.11;75.14
72202;SHT30;60105;54.956;73.412;2023-02-28T21:44:40;2.17;75.37
72202;SHT30;60105;54.956;73.412;2023-02-28T21:47:41;2.25;74.72